sensor_id;sensor_type;location;lat;lon;timestamp;P1;durP1;ratioP1;P2;durP2;ratioP2
53519;SDS011;39397;53.204;5.778;2023-03-31T00:00:32;36.97;;;7.28;;
53519;SDS011;39397;53.204;5.778;2023-03-31T00:02:58;35.00;;;6.82;;
53519;SDS011;39397;53.204;5.778;2023-03-31T00:05:24;41.22;;;6.47;;
53519;SDS011;39397;53.204;5.778;2023-03-31T00:07:54;43.10;;;7.50;;
53519;SDS011;39397;53.204;5.778;2023-03-31T00:10:28;38.65;;;6.80;;
53519;SDS011;39397;53.204;5.778;2023-03-31T00:12:57;36.67;;;6.93;;
53519;SDS011;39397;53.204;5.778;2023-03-31T00:15:24;34.45;;;6.63;;
53519;SDS011;39397;53.204;5.778;2023-03-31T00:17:51;42.03;;;6.35;;
53519;SDS011;39397;53.204;5.778;2023-03-31T00:20:17;39.55;;;7.10;;
53519;SDS011;39397;53.204;5.778;2023-03-31T00:22:43;36.75;;;5.53;;
53519;SDS011;39397;53.204;5.778;2023-03-31T00:25:14;41.00;;;7.47;;
53519;SDS011;39397;53.204;5.778;2023-03-31T00:27:41;41.40;;;6.93;;
53519;SDS011;39397;53.204;5.778;2023-03-31T00:30:08;38.60;;;7.70;;
53519;SDS011;39397;53.204;5.778;2023-03-31T00:32:36;33.78;;;7.15;;
53519;SDS011;39397;53.204;5.778;2023-03-31T00:35:02;34.05;;;7.72;;
53519;SDS011;39397;53.204;5.778;2023-03-31T00:37:28;32.65;;;6.80;;
53519;SDS011;39397;53.204;5.778;2023-03-31T00:39:54;34.20;;;7.07;;
53519;SDS011;39397;53.204;5.778;2023-03-31T00:42:21;35.30;;;6.47;;
53519;SDS011;39397;53.204;5.778;2023-03-31T00:49:58;37.08;;;7.53;;
53519;SDS011;39397;53.204;5.778;2023-03-31T00:52:31;39.33;;;6.68;;
53519;SDS011;39397;53.204;5.778;2023-03-31T00:55:06;26.90;;;5.82;;
53519;SDS011;39397;53.204;5.778;2023-03-31T00:57:36;36.22;;;5.68;;
53519;SDS011;39397;53.204;5.778;2023-03-31T01:00:07;29.30;;;5.70;;
53519;SDS011;39397;53.204;5.778;2023-03-31T01:02:42;32.55;;;5.80;;
53519;SDS011;39397;53.204;5.778;2023-03-31T01:05:46;35.15;;;6.38;;
53519;SDS011;39397;53.204;5.778;2023-03-31T01:08:20;39.63;;;5.28;;
53519;SDS011;39397;53.204;5.778;2023-03-31T01:10:51;38.75;;;6.90;;
53519;SDS011;39397;53.204;5.778;2023-03-31T01:13:19;30.35;;;4.45;;
53519;SDS011;39397;53.204;5.778;2023-03-31T01:15:46;36.50;;;5.22;;
53519;SDS011;39397;53.204;5.778;2023-03-31T01:18:12;38.70;;;5.35;;
53519;SDS011;39397;53.204;5.778;2023-03-31T01:32:28;33.30;;;6.88;;
53519;SDS011;39397;53.204;5.778;2023-03-31T01:40:38;39.08;;;6.90;;
53519;SDS011;39397;53.204;5.778;2023-03-31T01:43:28;43.75;;;6.22;;
53519;SDS011;39397;53.204;5.778;2023-03-31T01:46:19;41.30;;;6.45;;
53519;SDS011;39397;53.204;5.778;2023-03-31T01:54:18;39.88;;;5.90;;
53519;SDS011;39397;53.204;5.778;2023-03-31T02:00:06;38.33;;;7.22;;
53519;SDS011;39397;53.204;5.778;2023-03-31T02:02:36;38.55;;;6.75;;
53519;SDS011;39397;53.204;5.778;2023-03-31T02:05:09;32.33;;;5.53;;
53519;SDS011;39397;53.204;5.778;2023-03-31T02:07:40;33.00;;;5.30;;
53519;SDS011;39397;53.204;5.778;2023-03-31T02:10:12;34.80;;;4.70;;
53519;SDS011;39397;53.204;5.778;2023-03-31T02:12:41;34.72;;;5.25;;
53519;SDS011;39397;53.204;5.778;2023-03-31T02:15:10;30.58;;;5.72;;
53519;SDS011;39397;53.204;5.778;2023-03-31T02:17:40;31.98;;;5.65;;
53519;SDS011;39397;53.204;5.778;2023-03-31T02:20:10;28.83;;;5.47;;
53519;SDS011;39397;53.204;5.778;2023-03-31T02:22:40;33.55;;;5.82;;
53519;SDS011;39397;53.204;5.778;2023-03-31T02:25:10;28.38;;;5.32;;
53519;SDS011;39397;53.204;5.778;2023-03-31T02:27:45;32.95;;;5.63;;
53519;SDS011;39397;53.204;5.778;2023-03-31T02:30:16;31.30;;;5.45;;
53519;SDS011;39397;53.204;5.778;2023-03-31T02:32:43;27.40;;;5.88;;
53519;SDS011;39397;53.204;5.778;2023-03-31T02:35:14;35.28;;;5.68;;
53519;SDS011;39397;53.204;5.778;2023-03-31T02:37:42;31.58;;;4.47;;
53519;SDS011;39397;53.204;5.778;2023-03-31T02:40:16;31.08;;;5.15;;
53519;SDS011;39397;53.204;5.778;2023-03-31T02:42:44;26.67;;;4.53;;
53519;SDS011;39397;53.204;5.778;2023-03-31T02:48:03;29.20;;;4.78;;
53519;SDS011;39397;53.204;5.778;2023-03-31T02:50:39;24.15;;;5.13;;
53519;SDS011;39397;53.204;5.778;2023-03-31T02:53:30;26.70;;;4.35;;
53519;SDS011;39397;53.204;5.778;2023-03-31T02:59:02;21.07;;;4.27;;
53519;SDS011;39397;53.204;5.778;2023-03-31T03:10:05;24.63;;;3.95;;
53519;SDS011;39397;53.204;5.778;2023-03-31T03:12:42;29.98;;;5.32;;
53519;SDS011;39397;53.204;5.778;2023-03-31T03:15:17;24.90;;;4.28;;
53519;SDS011;39397;53.204;5.778;2023-03-31T03:17:50;26.10;;;4.40;;
53519;SDS011;39397;53.204;5.778;2023-03-31T03:20:18;33.15;;;5.78;;
53519;SDS011;39397;53.204;5.778;2023-03-31T03:22:46;22.85;;;4.10;;
53519;SDS011;39397;53.204;5.778;2023-03-31T03:25:12;24.83;;;4.22;;
53519;SDS011;39397;53.204;5.778;2023-03-31T03:27:39;26.27;;;3.95;;
53519;SDS011;39397;53.204;5.778;2023-03-31T03:30:06;26.35;;;4.68;;
53519;SDS011;39397;53.204;5.778;2023-03-31T03:32:33;29.95;;;4.63;;
53519;SDS011;39397;53.204;5.778;2023-03-31T03:34:59;31.35;;;4.50;;
53519;SDS011;39397;53.204;5.778;2023-03-31T03:37:26;25.05;;;4.43;;
53519;SDS011;39397;53.204;5.778;2023-03-31T03:39:52;23.40;;;4.97;;
53519;SDS011;39397;53.204;5.778;2023-03-31T03:42:17;26.25;;;4.57;;
53519;SDS011;39397;53.204;5.778;2023-03-31T03:44:43;24.13;;;3.92;;
53519;SDS011;39397;53.204;5.778;2023-03-31T03:47:09;22.90;;;3.92;;
53519;SDS011;39397;53.204;5.778;2023-03-31T03:49:34;27.58;;;4.32;;
53519;SDS011;39397;53.204;5.778;2023-03-31T03:52:00;21.27;;;3.30;;
53519;SDS011;39397;53.204;5.778;2023-03-31T03:54:26;21.00;;;3.88;;
53519;SDS011;39397;53.204;5.778;2023-03-31T03:56:51;26.05;;;4.82;;
53519;SDS011;39397;53.204;5.778;2023-03-31T03:59:17;22.08;;;4.95;;
53519;SDS011;39397;53.204;5.778;2023-03-31T04:01:43;22.40;;;5.32;;
53519;SDS011;39397;53.204;5.778;2023-03-31T04:04:09;19.48;;;4.60;;
53519;SDS011;39397;53.204;5.778;2023-03-31T04:06:34;18.83;;;5.65;;
53519;SDS011;39397;53.204;5.778;2023-03-31T04:09:00;18.20;;;4.20;;
53519;SDS011;39397;53.204;5.778;2023-03-31T04:11:26;20.65;;;5.97;;
53519;SDS011;39397;53.204;5.778;2023-03-31T04:13:52;14.32;;;4.85;;
53519;SDS011;39397;53.204;5.778;2023-03-31T04:16:17;26.58;;;5.93;;
53519;SDS011;39397;53.204;5.778;2023-03-31T04:18:46;17.50;;;5.38;;
53519;SDS011;39397;53.204;5.778;2023-03-31T04:21:13;25.92;;;5.75;;
53519;SDS011;39397;53.204;5.778;2023-03-31T04:23:47;20.67;;;5.75;;
53519;SDS011;39397;53.204;5.778;2023-03-31T04:26:15;16.70;;;5.32;;
53519;SDS011;39397;53.204;5.778;2023-03-31T04:28:42;20.77;;;5.85;;
53519;SDS011;39397;53.204;5.778;2023-03-31T04:31:11;14.63;;;5.38;;
53519;SDS011;39397;53.204;5.778;2023-03-31T04:33:52;21.08;;;6.93;;
53519;SDS011;39397;53.204;5.778;2023-03-31T04:36:18;19.05;;;7.22;;
53519;SDS011;39397;53.204;5.778;2023-03-31T04:38:45;20.08;;;6.32;;
53519;SDS011;39397;53.204;5.778;2023-03-31T04:41:18;19.95;;;6.93;;
53519;SDS011;39397;53.204;5.778;2023-03-31T04:43:47;27.63;;;9.05;;
53519;SDS011;39397;53.204;5.778;2023-03-31T04:46:12;25.58;;;6.68;;
53519;SDS011;39397;53.204;5.778;2023-03-31T04:48:38;22.13;;;6.13;;
53519;SDS011;39397;53.204;5.778;2023-03-31T04:51:04;18.70;;;6.32;;
53519;SDS011;39397;53.204;5.778;2023-03-31T04:53:30;20.95;;;7.30;;
53519;SDS011;39397;53.204;5.778;2023-03-31T04:55:56;26.27;;;9.13;;
53519;SDS011;39397;53.204;5.778;2023-03-31T04:58:21;22.33;;;7.18;;
53519;SDS011;39397;53.204;5.778;2023-03-31T05:00:47;22.38;;;7.22;;
53519;SDS011;39397;53.204;5.778;2023-03-31T05:03:13;22.75;;;6.45;;
53519;SDS011;39397;53.204;5.778;2023-03-31T05:05:39;18.05;;;6.80;;
53519;SDS011;39397;53.204;5.778;2023-03-31T05:08:04;17.92;;;6.32;;
53519;SDS011;39397;53.204;5.778;2023-03-31T05:10:30;19.15;;;7.68;;
53519;SDS011;39397;53.204;5.778;2023-03-31T05:12:56;17.65;;;7.70;;
53519;SDS011;39397;53.204;5.778;2023-03-31T05:15:22;19.17;;;7.72;;
53519;SDS011;39397;53.204;5.778;2023-03-31T05:17:51;17.17;;;6.70;;
53519;SDS011;39397;53.204;5.778;2023-03-31T05:20:18;24.35;;;7.18;;
53519;SDS011;39397;53.204;5.778;2023-03-31T05:22:44;16.02;;;6.40;;
53519;SDS011;39397;53.204;5.778;2023-03-31T05:25:10;20.45;;;7.07;;
53519;SDS011;39397;53.204;5.778;2023-03-31T05:27:43;21.05;;;7.40;;
53519;SDS011;39397;53.204;5.778;2023-03-31T05:30:11;19.27;;;7.55;;
53519;SDS011;39397;53.204;5.778;2023-03-31T05:32:37;20.35;;;7.97;;
53519;SDS011;39397;53.204;5.778;2023-03-31T05:35:03;19.77;;;6.82;;
53519;SDS011;39397;53.204;5.778;2023-03-31T05:37:29;19.75;;;7.88;;
53519;SDS011;39397;53.204;5.778;2023-03-31T05:39:55;17.70;;;7.57;;
53519;SDS011;39397;53.204;5.778;2023-03-31T05:42:21;19.33;;;7.88;;
53519;SDS011;39397;53.204;5.778;2023-03-31T05:44:47;18.42;;;8.48;;
53519;SDS011;39397;53.204;5.778;2023-03-31T05:47:13;16.50;;;7.18;;
53519;SDS011;39397;53.204;5.778;2023-03-31T05:49:39;16.90;;;7.60;;
53519;SDS011;39397;53.204;5.778;2023-03-31T05:52:05;19.88;;;8.02;;
53519;SDS011;39397;53.204;5.778;2023-03-31T05:54:34;20.02;;;8.25;;
53519;SDS011;39397;53.204;5.778;2023-03-31T05:57:00;21.63;;;8.65;;
53519;SDS011;39397;53.204;5.778;2023-03-31T05:59:26;19.13;;;7.85;;
53519;SDS011;39397;53.204;5.778;2023-03-31T06:01:57;20.98;;;7.68;;
53519;SDS011;39397;53.204;5.778;2023-03-31T06:04:23;19.90;;;8.30;;
53519;SDS011;39397;53.204;5.778;2023-03-31T06:06:49;19.63;;;7.50;;
53519;SDS011;39397;53.204;5.778;2023-03-31T06:09:15;18.42;;;8.30;;
53519;SDS011;39397;53.204;5.778;2023-03-31T06:11:42;20.40;;;8.73;;
53519;SDS011;39397;53.204;5.778;2023-03-31T06:14:08;21.60;;;8.38;;
53519;SDS011;39397;53.204;5.778;2023-03-31T06:16:33;18.23;;;8.40;;
53519;SDS011;39397;53.204;5.778;2023-03-31T06:18:59;16.67;;;8.00;;
53519;SDS011;39397;53.204;5.778;2023-03-31T06:21:25;21.42;;;10.15;;
53519;SDS011;39397;53.204;5.778;2023-03-31T06:23:50;17.52;;;8.88;;
53519;SDS011;39397;53.204;5.778;2023-03-31T06:26:19;17.70;;;8.75;;
53519;SDS011;39397;53.204;5.778;2023-03-31T06:28:46;18.90;;;8.18;;
53519;SDS011;39397;53.204;5.778;2023-03-31T06:31:14;16.00;;;8.30;;
53519;SDS011;39397;53.204;5.778;2023-03-31T06:33:42;16.60;;;8.18;;
53519;SDS011;39397;53.204;5.778;2023-03-31T06:36:09;17.13;;;7.45;;
53519;SDS011;39397;53.204;5.778;2023-03-31T06:38:37;19.35;;;8.32;;
53519;SDS011;39397;53.204;5.778;2023-03-31T06:41:03;17.85;;;7.65;;
53519;SDS011;39397;53.204;5.778;2023-03-31T06:43:30;14.07;;;7.53;;
53519;SDS011;39397;53.204;5.778;2023-03-31T06:45:56;12.65;;;6.25;;
53519;SDS011;39397;53.204;5.778;2023-03-31T06:48:22;13.20;;;6.18;;
53519;SDS011;39397;53.204;5.778;2023-03-31T06:50:49;12.43;;;5.40;;
53519;SDS011;39397;53.204;5.778;2023-03-31T06:53:17;10.52;;;5.10;;
53519;SDS011;39397;53.204;5.778;2023-03-31T06:55:51;13.45;;;5.70;;
53519;SDS011;39397;53.204;5.778;2023-03-31T06:58:17;9.43;;;4.13;;
53519;SDS011;39397;53.204;5.778;2023-03-31T07:00:43;10.50;;;4.20;;
53519;SDS011;39397;53.204;5.778;2023-03-31T07:03:10;9.77;;;4.10;;
53519;SDS011;39397;53.204;5.778;2023-03-31T07:05:36;11.07;;;4.32;;
53519;SDS011;39397;53.204;5.778;2023-03-31T07:08:04;10.77;;;3.85;;
53519;SDS011;39397;53.204;5.778;2023-03-31T07:10:32;9.25;;;3.95;;
53519;SDS011;39397;53.204;5.778;2023-03-31T07:12:58;11.13;;;3.30;;
53519;SDS011;39397;53.204;5.778;2023-03-31T07:15:24;7.60;;;3.55;;
53519;SDS011;39397;53.204;5.778;2023-03-31T07:17:54;8.48;;;3.72;;
53519;SDS011;39397;53.204;5.778;2023-03-31T07:20:26;10.93;;;3.85;;
53519;SDS011;39397;53.204;5.778;2023-03-31T07:22:52;7.55;;;3.05;;
53519;SDS011;39397;53.204;5.778;2023-03-31T07:25:18;9.52;;;3.35;;
53519;SDS011;39397;53.204;5.778;2023-03-31T07:27:44;8.85;;;3.45;;
53519;SDS011;39397;53.204;5.778;2023-03-31T07:30:14;8.13;;;3.28;;
53519;SDS011;39397;53.204;5.778;2023-03-31T07:32:46;9.88;;;3.40;;
53519;SDS011;39397;53.204;5.778;2023-03-31T07:35:14;15.77;;;4.05;;
53519;SDS011;39397;53.204;5.778;2023-03-31T07:37:41;18.35;;;5.00;;
53519;SDS011;39397;53.204;5.778;2023-03-31T07:40:10;10.38;;;3.20;;
53519;SDS011;39397;53.204;5.778;2023-03-31T07:42:39;9.90;;;2.83;;
53519;SDS011;39397;53.204;5.778;2023-03-31T07:45:06;11.63;;;2.75;;
53519;SDS011;39397;53.204;5.778;2023-03-31T07:47:32;11.00;;;3.20;;
53519;SDS011;39397;53.204;5.778;2023-03-31T07:49:58;12.45;;;3.10;;
53519;SDS011;39397;53.204;5.778;2023-03-31T07:52:24;7.97;;;2.80;;
53519;SDS011;39397;53.204;5.778;2023-03-31T07:54:50;9.32;;;2.80;;
53519;SDS011;39397;53.204;5.778;2023-03-31T07:57:15;10.48;;;3.30;;
53519;SDS011;39397;53.204;5.778;2023-03-31T07:59:46;10.35;;;3.63;;
53519;SDS011;39397;53.204;5.778;2023-03-31T08:02:13;9.82;;;3.80;;
53519;SDS011;39397;53.204;5.778;2023-03-31T08:04:40;12.88;;;4.10;;
53519;SDS011;39397;53.204;5.778;2023-03-31T08:07:07;9.73;;;3.08;;
53519;SDS011;39397;53.204;5.778;2023-03-31T08:09:33;8.25;;;2.85;;
53519;SDS011;39397;53.204;5.778;2023-03-31T08:11:59;10.80;;;3.47;;
53519;SDS011;39397;53.204;5.778;2023-03-31T08:14:26;8.35;;;3.17;;
53519;SDS011;39397;53.204;5.778;2023-03-31T08:16:52;8.10;;;3.38;;
53519;SDS011;39397;53.204;5.778;2023-03-31T08:19:19;8.57;;;3.40;;
53519;SDS011;39397;53.204;5.778;2023-03-31T08:21:46;8.95;;;3.60;;
53519;SDS011;39397;53.204;5.778;2023-03-31T08:24:12;9.93;;;3.70;;
53519;SDS011;39397;53.204;5.778;2023-03-31T08:26:39;9.68;;;4.07;;
53519;SDS011;39397;53.204;5.778;2023-03-31T08:29:05;9.93;;;4.00;;
53519;SDS011;39397;53.204;5.778;2023-03-31T08:31:31;8.68;;;4.22;;
53519;SDS011;39397;53.204;5.778;2023-03-31T08:33:57;6.93;;;3.70;;
53519;SDS011;39397;53.204;5.778;2023-03-31T08:36:23;9.82;;;4.10;;
53519;SDS011;39397;53.204;5.778;2023-03-31T08:38:50;8.60;;;4.00;;
53519;SDS011;39397;53.204;5.778;2023-03-31T08:44:00;10.10;;;3.33;;
53519;SDS011;39397;53.204;5.778;2023-03-31T08:46:48;7.80;;;3.10;;
53519;SDS011;39397;53.204;5.778;2023-03-31T08:49:17;8.52;;;3.00;;
53519;SDS011;39397;53.204;5.778;2023-03-31T08:51:51;8.00;;;3.33;;
53519;SDS011;39397;53.204;5.778;2023-03-31T08:54:28;8.13;;;3.10;;
53519;SDS011;39397;53.204;5.778;2023-03-31T08:56:57;8.82;;;3.20;;
53519;SDS011;39397;53.204;5.778;2023-03-31T08:59:26;7.57;;;3.30;;
53519;SDS011;39397;53.204;5.778;2023-03-31T09:02:00;9.38;;;3.38;;
53519;SDS011;39397;53.204;5.778;2023-03-31T09:04:51;9.00;;;3.20;;
53519;SDS011;39397;53.204;5.778;2023-03-31T09:19:17;10.30;;;3.25;;
53519;SDS011;39397;53.204;5.778;2023-03-31T09:21:50;8.07;;;2.50;;
53519;SDS011;39397;53.204;5.778;2023-03-31T09:24:26;7.22;;;2.17;;
53519;SDS011;39397;53.204;5.778;2023-03-31T09:26:57;6.95;;;2.00;;
53519;SDS011;39397;53.204;5.778;2023-03-31T09:29:31;7.20;;;2.00;;
53519;SDS011;39397;53.204;5.778;2023-03-31T09:32:00;5.57;;;1.75;;
53519;SDS011;39397;53.204;5.778;2023-03-31T09:34:34;5.40;;;1.65;;
53519;SDS011;39397;53.204;5.778;2023-03-31T09:37:00;6.18;;;1.60;;
53519;SDS011;39397;53.204;5.778;2023-03-31T09:39:26;7.28;;;1.80;;
53519;SDS011;39397;53.204;5.778;2023-03-31T09:41:52;6.88;;;1.50;;
53519;SDS011;39397;53.204;5.778;2023-03-31T09:47:08;8.95;;;2.10;;
53519;SDS011;39397;53.204;5.778;2023-03-31T09:49:49;6.53;;;1.85;;
53519;SDS011;39397;53.204;5.778;2023-03-31T09:52:34;4.60;;;1.40;;
53519;SDS011;39397;53.204;5.778;2023-03-31T09:55:05;6.97;;;1.67;;
53519;SDS011;39397;53.204;5.778;2023-03-31T09:57:43;5.68;;;1.52;;
53519;SDS011;39397;53.204;5.778;2023-03-31T10:02:53;5.22;;;1.60;;
53519;SDS011;39397;53.204;5.778;2023-03-31T10:05:21;8.13;;;1.73;;
53519;SDS011;39397;53.204;5.778;2023-03-31T10:10:45;7.53;;;2.45;;
53519;SDS011;39397;53.204;5.778;2023-03-31T10:13:27;11.77;;;3.92;;
53519;SDS011;39397;53.204;5.778;2023-03-31T10:16:02;7.85;;;2.40;;
53519;SDS011;39397;53.204;5.778;2023-03-31T10:18:38;8.80;;;3.05;;
53519;SDS011;39397;53.204;5.778;2023-03-31T10:21:06;10.30;;;2.50;;
53519;SDS011;39397;53.204;5.778;2023-03-31T10:23:44;7.28;;;2.42;;
53519;SDS011;39397;53.204;5.778;2023-03-31T10:26:13;10.15;;;2.85;;
53519;SDS011;39397;53.204;5.778;2023-03-31T10:28:44;7.53;;;2.22;;
53519;SDS011;39397;53.204;5.778;2023-03-31T10:31:13;9.30;;;3.20;;
53519;SDS011;39397;53.204;5.778;2023-03-31T10:33:43;7.90;;;2.90;;
53519;SDS011;39397;53.204;5.778;2023-03-31T10:36:17;8.90;;;2.85;;
53519;SDS011;39397;53.204;5.778;2023-03-31T10:38:47;7.88;;;2.80;;
53519;SDS011;39397;53.204;5.778;2023-03-31T10:41:19;9.95;;;3.10;;
53519;SDS011;39397;53.204;5.778;2023-03-31T10:43:49;9.93;;;2.60;;
53519;SDS011;39397;53.204;5.778;2023-03-31T10:46:17;11.25;;;2.85;;
53519;SDS011;39397;53.204;5.778;2023-03-31T10:48:43;10.30;;;3.10;;
53519;SDS011;39397;53.204;5.778;2023-03-31T10:53:40;9.85;;;2.53;;
53519;SDS011;39397;53.204;5.778;2023-03-31T10:56:52;6.88;;;2.63;;
53519;SDS011;39397;53.204;5.778;2023-03-31T11:07:48;9.60;;;2.55;;
53519;SDS011;39397;53.204;5.778;2023-03-31T11:21:19;13.32;;;2.70;;
53519;SDS011;39397;53.204;5.778;2023-03-31T11:29:49;10.80;;;2.38;;
53519;SDS011;39397;53.204;5.778;2023-03-31T11:43:41;8.35;;;2.00;;
53519;SDS011;39397;53.204;5.778;2023-03-31T11:46:21;9.32;;;2.15;;
53519;SDS011;39397;53.204;5.778;2023-03-31T11:51:27;9.85;;;2.30;;
53519;SDS011;39397;53.204;5.778;2023-03-31T11:54:15;8.75;;;2.10;;
53519;SDS011;39397;53.204;5.778;2023-03-31T11:56:46;6.03;;;1.92;;
53519;SDS011;39397;53.204;5.778;2023-03-31T11:59:14;9.02;;;2.22;;
53519;SDS011;39397;53.204;5.778;2023-03-31T12:01:56;9.18;;;2.50;;
53519;SDS011;39397;53.204;5.778;2023-03-31T12:04:49;9.32;;;2.25;;
53519;SDS011;39397;53.204;5.778;2023-03-31T12:07:26;11.40;;;2.75;;
53519;SDS011;39397;53.204;5.778;2023-03-31T12:12:41;9.00;;;2.47;;
53519;SDS011;39397;53.204;5.778;2023-03-31T12:15:29;7.32;;;2.55;;
53519;SDS011;39397;53.204;5.778;2023-03-31T12:18:08;7.80;;;2.42;;
53519;SDS011;39397;53.204;5.778;2023-03-31T12:20:40;8.18;;;1.98;;
53519;SDS011;39397;53.204;5.778;2023-03-31T12:23:14;10.13;;;4.05;;
53519;SDS011;39397;53.204;5.778;2023-03-31T12:26:05;10.13;;;2.78;;
53519;SDS011;39397;53.204;5.778;2023-03-31T12:28:55;12.65;;;3.17;;
53519;SDS011;39397;53.204;5.778;2023-03-31T12:31:24;15.23;;;6.07;;
53519;SDS011;39397;53.204;5.778;2023-03-31T12:33:56;10.82;;;3.30;;
53519;SDS011;39397;53.204;5.778;2023-03-31T12:42:37;14.23;;;4.57;;
53519;SDS011;39397;53.204;5.778;2023-03-31T12:45:29;11.60;;;3.03;;
53519;SDS011;39397;53.204;5.778;2023-03-31T12:51:00;13.98;;;2.70;;
53519;SDS011;39397;53.204;5.778;2023-03-31T12:53:52;10.57;;;2.70;;
53519;SDS011;39397;53.204;5.778;2023-03-31T12:57:18;10.77;;;3.72;;
53519;SDS011;39397;53.204;5.778;2023-03-31T12:59:35;13.25;;;3.05;;
53519;SDS011;39397;53.204;5.778;2023-03-31T13:04:37;8.77;;;2.30;;
53519;SDS011;39397;53.204;5.778;2023-03-31T13:07:04;8.93;;;3.63;;
53519;SDS011;39397;53.204;5.778;2023-03-31T13:09:43;16.85;;;6.18;;
53519;SDS011;39397;53.204;5.778;2023-03-31T13:12:17;10.93;;;2.53;;
53519;SDS011;39397;53.204;5.778;2023-03-31T13:14:46;10.55;;;2.92;;
53519;SDS011;39397;53.204;5.778;2023-03-31T13:17:34;11.68;;;2.20;;
53519;SDS011;39397;53.204;5.778;2023-03-31T13:22:47;9.10;;;2.17;;
53519;SDS011;39397;53.204;5.778;2023-03-31T13:27:55;9.82;;;2.42;;
53519;SDS011;39397;53.204;5.778;2023-03-31T13:31:05;6.90;;;2.08;;
53519;SDS011;39397;53.204;5.778;2023-03-31T13:35:46;5.93;;;2.15;;
53519;SDS011;39397;53.204;5.778;2023-03-31T13:52:15;6.68;;;1.60;;
53519;SDS011;39397;53.204;5.778;2023-03-31T13:55:11;9.02;;;2.45;;
53519;SDS011;39397;53.204;5.778;2023-03-31T14:06:10;6.95;;;2.65;;
53519;SDS011;39397;53.204;5.778;2023-03-31T14:09:39;8.10;;;1.95;;
53519;SDS011;39397;53.204;5.778;2023-03-31T14:11:51;7.85;;;1.38;;
53519;SDS011;39397;53.204;5.778;2023-03-31T14:14:17;5.43;;;1.30;;
53519;SDS011;39397;53.204;5.778;2023-03-31T14:17:01;8.23;;;1.90;;
53519;SDS011;39397;53.204;5.778;2023-03-31T14:39:35;4.97;;;1.85;;
53519;SDS011;39397;53.204;5.778;2023-03-31T14:42:09;4.57;;;1.20;;
53519;SDS011;39397;53.204;5.778;2023-03-31T14:44:40;4.72;;;1.40;;
53519;SDS011;39397;53.204;5.778;2023-03-31T14:47:50;4.70;;;1.00;;
53519;SDS011;39397;53.204;5.778;2023-03-31T14:50:02;6.43;;;1.85;;
53519;SDS011;39397;53.204;5.778;2023-03-31T14:52:46;5.20;;;1.35;;
53519;SDS011;39397;53.204;5.778;2023-03-31T14:55:14;8.77;;;2.63;;
53519;SDS011;39397;53.204;5.778;2023-03-31T14:57:40;5.90;;;1.50;;
53519;SDS011;39397;53.204;5.778;2023-03-31T15:00:10;5.50;;;1.30;;
53519;SDS011;39397;53.204;5.778;2023-03-31T15:02:45;7.80;;;2.13;;
53519;SDS011;39397;53.204;5.778;2023-03-31T15:05:31;9.55;;;1.67;;
53519;SDS011;39397;53.204;5.778;2023-03-31T15:08:02;5.93;;;1.45;;
53519;SDS011;39397;53.204;5.778;2023-03-31T15:10:36;12.18;;;2.78;;
53519;SDS011;39397;53.204;5.778;2023-03-31T15:13:39;5.68;;;1.23;;
53519;SDS011;39397;53.204;5.778;2023-03-31T15:15:56;6.40;;;1.80;;
53519;SDS011;39397;53.204;5.778;2023-03-31T15:18:24;6.10;;;1.45;;
53519;SDS011;39397;53.204;5.778;2023-03-31T15:20:51;4.63;;;1.20;;
53519;SDS011;39397;53.204;5.778;2023-03-31T15:23:24;5.43;;;1.70;;
53519;SDS011;39397;53.204;5.778;2023-03-31T15:28:28;9.85;;;1.67;;
53519;SDS011;39397;53.204;5.778;2023-03-31T15:31:01;5.63;;;1.40;;
53519;SDS011;39397;53.204;5.778;2023-03-31T15:33:32;6.72;;;1.33;;
53519;SDS011;39397;53.204;5.778;2023-03-31T15:36:01;3.65;;;1.23;;
53519;SDS011;39397;53.204;5.778;2023-03-31T15:38:27;8.73;;;1.38;;
53519;SDS011;39397;53.204;5.778;2023-03-31T15:40:56;3.42;;;1.08;;
53519;SDS011;39397;53.204;5.778;2023-03-31T15:45:54;5.20;;;1.30;;
53519;SDS011;39397;53.204;5.778;2023-03-31T15:48:34;5.63;;;1.50;;
53519;SDS011;39397;53.204;5.778;2023-03-31T15:53:34;5.40;;;1.35;;
53519;SDS011;39397;53.204;5.778;2023-03-31T15:56:01;6.80;;;1.27;;
53519;SDS011;39397;53.204;5.778;2023-03-31T16:01:20;6.15;;;1.50;;
53519;SDS011;39397;53.204;5.778;2023-03-31T16:03:53;5.60;;;1.30;;
53519;SDS011;39397;53.204;5.778;2023-03-31T16:09:09;6.78;;;1.77;;
53519;SDS011;39397;53.204;5.778;2023-03-31T16:11:48;6.75;;;1.48;;
53519;SDS011;39397;53.204;5.778;2023-03-31T16:14:24;6.80;;;1.55;;
53519;SDS011;39397;53.204;5.778;2023-03-31T16:17:01;5.45;;;1.50;;
53519;SDS011;39397;53.204;5.778;2023-03-31T16:19:38;5.20;;;1.75;;
53519;SDS011;39397;53.204;5.778;2023-03-31T16:22:29;4.13;;;1.30;;
53519;SDS011;39397;53.204;5.778;2023-03-31T16:24:59;4.47;;;1.13;;
53519;SDS011;39397;53.204;5.778;2023-03-31T16:27:25;3.60;;;1.27;;
53519;SDS011;39397;53.204;5.778;2023-03-31T16:29:54;5.63;;;1.70;;
53519;SDS011;39397;53.204;5.778;2023-03-31T16:32:37;5.40;;;1.35;;
53519;SDS011;39397;53.204;5.778;2023-03-31T16:35:03;5.60;;;1.60;;
53519;SDS011;39397;53.204;5.778;2023-03-31T16:37:30;4.90;;;1.30;;
53519;SDS011;39397;53.204;5.778;2023-03-31T16:39:58;6.57;;;1.30;;
53519;SDS011;39397;53.204;5.778;2023-03-31T16:42:24;6.25;;;1.50;;
53519;SDS011;39397;53.204;5.778;2023-03-31T16:44:51;3.83;;;1.15;;
53519;SDS011;39397;53.204;5.778;2023-03-31T16:47:16;5.20;;;1.55;;
53519;SDS011;39397;53.204;5.778;2023-03-31T16:49:42;5.60;;;1.77;;
53519;SDS011;39397;53.204;5.778;2023-03-31T16:52:08;5.60;;;1.90;;
53519;SDS011;39397;53.204;5.778;2023-03-31T16:54:33;6.43;;;2.22;;
53519;SDS011;39397;53.204;5.778;2023-03-31T16:56:59;6.93;;;2.38;;
53519;SDS011;39397;53.204;5.778;2023-03-31T16:59:26;5.82;;;1.30;;
53519;SDS011;39397;53.204;5.778;2023-03-31T17:01:51;5.75;;;1.60;;
53519;SDS011;39397;53.204;5.778;2023-03-31T17:04:17;6.20;;;2.00;;
53519;SDS011;39397;53.204;5.778;2023-03-31T17:06:44;9.13;;;2.88;;
53519;SDS011;39397;53.204;5.778;2023-03-31T17:09:10;9.32;;;2.65;;
53519;SDS011;39397;53.204;5.778;2023-03-31T17:11:36;9.52;;;2.70;;
53519;SDS011;39397;53.204;5.778;2023-03-31T17:14:01;8.93;;;2.50;;
53519;SDS011;39397;53.204;5.778;2023-03-31T17:16:29;9.05;;;3.00;;
53519;SDS011;39397;53.204;5.778;2023-03-31T17:18:55;11.43;;;4.00;;
53519;SDS011;39397;53.204;5.778;2023-03-31T17:21:21;10.52;;;5.18;;
53519;SDS011;39397;53.204;5.778;2023-03-31T17:23:47;7.43;;;2.45;;
53519;SDS011;39397;53.204;5.778;2023-03-31T17:26:13;5.28;;;2.03;;
53519;SDS011;39397;53.204;5.778;2023-03-31T17:28:40;8.25;;;2.10;;
53519;SDS011;39397;53.204;5.778;2023-03-31T17:31:13;7.32;;;2.08;;
53519;SDS011;39397;53.204;5.778;2023-03-31T17:33:40;7.25;;;2.13;;
53519;SDS011;39397;53.204;5.778;2023-03-31T17:36:07;5.30;;;1.77;;
53519;SDS011;39397;53.204;5.778;2023-03-31T17:38:34;8.75;;;2.08;;
53519;SDS011;39397;53.204;5.778;2023-03-31T17:41:03;6.00;;;1.83;;
53519;SDS011;39397;53.204;5.778;2023-03-31T17:43:30;4.15;;;1.60;;
53519;SDS011;39397;53.204;5.778;2023-03-31T17:46:00;5.68;;;1.92;;
53519;SDS011;39397;53.204;5.778;2023-03-31T17:48:28;7.43;;;1.90;;
53519;SDS011;39397;53.204;5.778;2023-03-31T17:50:53;8.63;;;2.00;;
53519;SDS011;39397;53.204;5.778;2023-03-31T17:53:22;6.80;;;1.98;;
53519;SDS011;39397;53.204;5.778;2023-03-31T17:55:48;6.35;;;1.83;;
53519;SDS011;39397;53.204;5.778;2023-03-31T17:58:13;3.70;;;1.13;;
53519;SDS011;39397;53.204;5.778;2023-03-31T18:00:40;3.67;;;1.02;;
53519;SDS011;39397;53.204;5.778;2023-03-31T18:03:05;4.47;;;0.98;;
53519;SDS011;39397;53.204;5.778;2023-03-31T18:05:31;4.30;;;1.88;;
53519;SDS011;39397;53.204;5.778;2023-03-31T18:08:00;6.45;;;1.70;;